createdAt,value
2018-12-09T00:03:25.172Z,20.42
2018-12-09T00:05:54.906Z,20.43
2018-12-09T00:08:23.845Z,20.44
2018-12-09T00:10:52.975Z,20.36
2018-12-09T00:13:21.847Z,20.34
2018-12-09T00:15:50.630Z,20.31
2018-12-09T00:18:20.098Z,20.29
2018-12-09T00:20:48.825Z,20.31
2018-12-09T00:23:17.574Z,20.23
2018-12-09T00:25:46.564Z,20.23
2018-12-09T00:28:15.325Z,20.20
2018-12-09T00:30:44.629Z,20.16
2018-12-09T00:33:13.374Z,20.14
2018-12-09T00:35:42.185Z,20.12
2018-12-09T00:38:11.599Z,20.09
2018-12-09T00:40:40.323Z,20.04
2018-12-09T00:43:09.174Z,20.02
2018-12-09T00:45:37.926Z,20.00
2018-12-09T00:48:06.676Z,19.97
2018-12-09T00:50:35.792Z,19.98
2018-12-09T00:53:04.854Z,19.93
2018-12-09T00:55:34.117Z,19.92
2018-12-09T00:58:02.932Z,19.89
2018-12-09T01:00:31.949Z,19.88
2018-12-09T01:03:00.696Z,19.82
2018-12-09T01:05:29.464Z,19.77
2018-12-09T01:07:58.210Z,19.77
2018-12-09T01:10:27.658Z,19.74
2018-12-09T01:12:56.411Z,19.71
2018-12-09T01:15:25.802Z,19.69
2018-12-09T01:17:54.926Z,19.66
2018-12-09T01:20:23.642Z,19.65
2018-12-09T01:22:52.725Z,19.63
2018-12-09T01:25:21.534Z,19.64
2018-12-09T01:27:50.434Z,19.61
2018-12-09T01:30:19.177Z,19.60
2018-12-09T01:32:47.950Z,19.55
2018-12-09T01:35:16.745Z,19.51
2018-12-09T01:37:45.554Z,19.48
2018-12-09T01:40:14.357Z,19.44
2018-12-09T01:42:43.908Z,19.49
2018-12-09T01:45:12.877Z,19.43
2018-12-09T01:47:41.665Z,19.40
2018-12-09T01:50:10.444Z,19.36
2018-12-09T01:52:39.210Z,19.33
2018-12-09T01:55:07.966Z,19.34
2018-12-09T01:57:37.156Z,19.28
2018-12-09T02:00:06.355Z,19.32
2018-12-09T02:08:24.402Z,19.20
2018-12-09T02:10:53.512Z,19.16
2018-12-09T02:13:22.605Z,19.14
2018-12-09T02:15:51.915Z,19.10
2018-12-09T02:18:20.699Z,19.08
2018-12-09T02:20:49.462Z,19.09
2018-12-09T02:23:18.220Z,19.02
2018-12-09T02:25:47.011Z,18.99
2018-12-09T02:28:15.843Z,18.99
2018-12-09T02:30:44.625Z,19.01
2018-12-09T02:33:13.809Z,19.04
2018-12-09T02:35:46.503Z,18.93
2018-12-09T02:38:15.276Z,18.95
2018-12-09T02:40:44.067Z,18.92
2018-12-09T02:43:13.169Z,18.87
2018-12-09T02:45:42.025Z,18.87
2018-12-09T02:48:11.027Z,18.83
2018-12-09T02:50:39.818Z,18.84
2018-12-09T02:53:08.855Z,18.83
2018-12-09T02:55:37.665Z,18.76
2018-12-09T02:58:06.433Z,18.73
2018-12-09T03:00:35.242Z,18.73
2018-12-09T03:03:04.256Z,18.74
2018-12-09T03:05:33.392Z,18.72
2018-12-09T03:08:02.294Z,18.74
2018-12-09T03:10:31.158Z,18.69
2018-12-09T03:13:00.019Z,18.65
2018-12-09T03:15:29.107Z,18.65
2018-12-09T03:17:57.890Z,18.61
2018-12-09T03:20:26.729Z,18.55
2018-12-09T03:23:01.885Z,18.55
2018-12-09T03:25:30.644Z,18.50
2018-12-09T03:27:59.518Z,18.49
2018-12-09T03:30:28.631Z,18.52
2018-12-09T03:32:57.387Z,18.45
2018-12-09T03:35:26.151Z,18.44
2018-12-09T03:37:55.556Z,18.44
2018-12-09T03:40:24.315Z,18.42
2018-12-09T03:42:53.106Z,18.41
2018-12-09T03:45:21.936Z,18.36
2018-12-09T03:47:50.721Z,18.33
2018-12-09T03:50:19.852Z,18.35
2018-12-09T03:52:48.652Z,18.31
2018-12-09T03:55:17.420Z,18.29
2018-12-09T03:57:46.440Z,18.35
2018-12-09T04:00:15.927Z,18.33
2018-12-09T04:02:44.696Z,18.27
2018-12-09T04:05:13.479Z,18.25
2018-12-09T04:07:42.523Z,18.26
2018-12-09T04:10:11.274Z,18.26
2018-12-09T04:12:40.027Z,18.24
2018-12-09T04:15:09.674Z,18.18
2018-12-09T04:17:38.440Z,18.20
2018-12-09T04:20:07.531Z,18.13
2018-12-09T04:22:36.867Z,18.13
2018-12-09T04:25:05.634Z,18.11
2018-12-09T04:27:34.694Z,18.11
2018-12-09T04:30:04.081Z,18.07
2018-12-09T04:32:32.806Z,18.09
2018-12-09T04:35:01.553Z,18.08
2018-12-09T04:37:30.324Z,18.06
2018-12-09T04:39:59.099Z,18.07
2018-12-09T04:42:27.909Z,18.03
2018-12-09T04:44:56.750Z,18.06
2018-12-09T04:47:25.974Z,18.05
2018-12-09T04:49:55.003Z,18.04
2018-12-09T04:52:23.745Z,18.01
2018-12-09T04:54:52.533Z,18.01
2018-12-09T04:57:21.313Z,18.00
2018-12-09T04:59:50.139Z,17.98
2018-12-09T05:02:18.904Z,18.03
2018-12-09T05:04:47.702Z,17.99
2018-12-09T05:07:16.470Z,17.92
2018-12-09T05:09:45.447Z,17.93
2018-12-09T05:12:14.325Z,17.93
2018-12-09T05:14:43.235Z,17.93
2018-12-09T05:17:12.007Z,17.92
2018-12-09T05:19:41.218Z,17.88
2018-12-09T05:22:10.256Z,17.82
2018-12-09T05:24:39.035Z,17.83
2018-12-09T05:27:07.782Z,17.84
2018-12-09T05:29:36.530Z,17.83
2018-12-09T05:32:05.322Z,17.84
2018-12-09T05:34:34.096Z,17.89
2018-12-09T05:37:02.882Z,17.96
2018-12-09T05:39:31.717Z,17.99
2018-12-09T05:42:00.462Z,18.07
2018-12-09T05:44:29.217Z,18.16
2018-12-09T05:46:57.987Z,18.23
2018-12-09T05:49:26.758Z,18.24
2018-12-09T05:51:55.523Z,18.28
2018-12-09T05:54:25.139Z,18.31
2018-12-09T05:56:53.898Z,18.37
2018-12-09T05:59:22.674Z,18.37
2018-12-09T06:01:51.425Z,18.45
2018-12-09T06:04:20.169Z,18.46
2018-12-09T06:06:48.894Z,18.51
2018-12-09T06:09:17.669Z,18.57
2018-12-09T06:11:46.425Z,18.64
2018-12-09T06:14:15.214Z,18.67
2018-12-09T06:16:44.206Z,18.72
2018-12-09T06:19:12.962Z,18.80
2018-12-09T06:21:41.691Z,18.79
2018-12-09T06:24:10.439Z,18.84
2018-12-09T06:26:39.181Z,18.92
2018-12-09T06:29:08.617Z,18.95
2018-12-09T06:31:37.395Z,19.02
2018-12-09T06:34:06.398Z,19.11
2018-12-09T06:36:35.307Z,19.10
2018-12-09T06:39:04.861Z,19.13
2018-12-09T06:41:33.636Z,19.18
2018-12-09T06:44:02.527Z,19.22
2018-12-09T06:46:31.311Z,19.27
2018-12-09T06:49:00.078Z,19.31
2018-12-09T06:51:29.073Z,19.31
2018-12-09T06:53:57.793Z,19.37
2018-12-09T06:56:26.525Z,19.49
2018-12-09T06:58:55.316Z,19.50
2018-12-09T07:01:24.409Z,19.56
2018-12-09T07:03:54.117Z,19.57
2018-12-09T07:06:23.134Z,19.63
2018-12-09T07:08:52.101Z,19.63
2018-12-09T07:11:20.857Z,19.65
2018-12-09T07:13:50.179Z,19.70
2018-12-09T07:16:19.115Z,19.72
2018-12-09T07:18:48.008Z,19.77
2018-12-09T07:21:16.850Z,19.83
2018-12-09T07:23:45.615Z,19.85
2018-12-09T07:26:14.349Z,19.85
2018-12-09T07:28:43.436Z,19.94
2018-12-09T07:31:12.230Z,19.95
2018-12-09T07:33:41.020Z,19.94
2018-12-09T07:36:09.869Z,19.95
2018-12-09T07:38:38.880Z,20.07
2018-12-09T07:41:08.430Z,20.07
2018-12-09T07:43:37.150Z,20.08
2018-12-09T07:46:05.906Z,20.09
2018-12-09T07:48:34.826Z,20.22
2018-12-09T07:51:03.824Z,20.20
2018-12-09T07:53:32.575Z,20.11
2018-12-09T07:56:01.295Z,20.14
2018-12-09T07:58:30.008Z,20.13
2018-12-09T08:00:59.133Z,20.26
2018-12-09T08:03:27.892Z,20.23
2018-12-09T08:05:57.102Z,20.23
2018-12-09T08:08:25.907Z,20.15
2018-12-09T08:10:54.942Z,20.11
2018-12-09T08:13:23.760Z,20.08
2018-12-09T08:15:52.526Z,20.03
2018-12-09T08:18:21.309Z,19.98
2018-12-09T08:20:50.133Z,19.95
2018-12-09T08:23:19.738Z,19.92
2018-12-09T08:25:48.713Z,19.94
2018-12-09T08:28:17.454Z,19.92
2018-12-09T08:30:46.262Z,19.83
2018-12-09T08:33:15.688Z,19.73
2018-12-09T08:35:49.123Z,19.69
2018-12-09T08:38:17.892Z,19.65
2018-12-09T08:40:46.862Z,19.63
2018-12-09T08:43:15.886Z,19.58
2018-12-09T08:45:45.532Z,19.53
2018-12-09T08:48:14.375Z,19.49
2018-12-09T08:50:43.664Z,19.47
2018-12-09T08:53:12.683Z,19.40
2018-12-09T08:55:41.715Z,19.35
2018-12-09T08:58:11.118Z,19.34
2018-12-09T09:00:40.174Z,19.29
2018-12-09T09:03:09.019Z,19.25
2018-12-09T09:05:38.111Z,19.22
2018-12-09T09:08:07.505Z,19.15
2018-12-09T09:10:36.263Z,19.14
2018-12-09T09:13:05.219Z,19.11
2018-12-09T09:15:34.343Z,19.09
2018-12-09T09:18:03.667Z,19.11
2018-12-09T09:20:32.445Z,19.06
2018-12-09T09:23:01.211Z,19.05
2018-12-09T09:25:29.954Z,19.03
2018-12-09T09:27:59.049Z,19.01
2018-12-09T09:30:27.778Z,19.01
2018-12-09T09:32:58.739Z,18.98
2018-12-09T09:35:27.722Z,18.86
2018-12-09T09:37:56.515Z,18.94
2018-12-09T09:40:25.287Z,18.87
2018-12-09T09:42:54.931Z,18.91
2018-12-09T09:45:23.769Z,18.89
2018-12-09T09:47:52.802Z,18.86
2018-12-09T09:50:21.762Z,18.87
2018-12-09T09:52:50.576Z,18.88
2018-12-09T09:55:19.378Z,18.83
2018-12-09T09:57:48.516Z,18.83
2018-12-09T10:00:17.474Z,18.83
2018-12-09T10:02:46.707Z,18.82
2018-12-09T10:05:15.450Z,18.85
2018-12-09T10:07:44.643Z,18.85
2018-12-09T10:10:13.402Z,18.88
2018-12-09T10:12:43.015Z,18.95
2018-12-09T10:15:11.861Z,18.87
2018-12-09T10:17:41.074Z,18.86
2018-12-09T10:20:09.814Z,18.91
2018-12-09T10:22:38.812Z,18.92
2018-12-09T10:25:07.770Z,18.93
2018-12-09T10:27:37.161Z,18.84
2018-12-09T10:30:06.683Z,18.85
2018-12-09T10:32:35.882Z,18.90
2018-12-09T10:35:04.793Z,18.94
2018-12-09T10:37:33.683Z,18.86
2018-12-09T10:40:02.690Z,18.86
2018-12-09T10:42:33.442Z,18.86
2018-12-09T10:45:02.314Z,18.91
2018-12-09T10:47:31.055Z,18.90
2018-12-09T10:49:59.942Z,18.81
2018-12-09T10:52:28.701Z,18.94
2018-12-09T10:54:57.462Z,18.91
2018-12-09T10:57:26.191Z,18.85
2018-12-09T10:59:55.327Z,18.86
2018-12-09T11:02:24.279Z,18.83
2018-12-09T11:04:53.158Z,18.84
2018-12-09T11:07:22.801Z,18.93
2018-12-09T11:09:51.780Z,18.90
2018-12-09T11:12:20.730Z,18.90
2018-12-09T11:14:50.099Z,18.88
2018-12-09T11:17:19.226Z,18.88
2018-12-09T11:19:48.230Z,18.80
2018-12-09T11:22:17.003Z,18.88
2018-12-09T11:24:45.970Z,18.96
2018-12-09T11:27:14.933Z,18.92
2018-12-09T11:29:43.692Z,18.84
2018-12-09T11:32:13.050Z,18.98
2018-12-09T11:34:43.865Z,19.08
2018-12-09T11:37:12.874Z,19.05
2018-12-09T11:39:42.070Z,18.93
2018-12-09T11:42:10.838Z,18.98
2018-12-09T11:44:40.062Z,18.98
2018-12-09T11:47:09.002Z,18.90
2018-12-09T11:49:37.757Z,18.91
2018-12-09T11:52:07.191Z,18.94
2018-12-09T11:54:36.244Z,19.01
2018-12-09T11:57:05.245Z,18.98
2018-12-09T11:59:34.619Z,18.90
2018-12-09T12:02:03.778Z,18.79
2018-12-09T12:04:33.275Z,18.79
2018-12-09T12:07:02.039Z,18.79
2018-12-09T12:09:36.813Z,18.74
2018-12-09T12:12:05.566Z,18.73
2018-12-09T12:14:34.326Z,18.72
2018-12-09T12:17:04.261Z,18.77
2018-12-09T12:19:34.149Z,18.79
2018-12-09T12:22:06.187Z,18.74
2018-12-09T12:24:34.938Z,18.71
2018-12-09T12:27:04.200Z,18.69
2018-12-09T12:29:34.007Z,18.69
2018-12-09T12:32:02.894Z,18.58
2018-12-09T12:34:31.894Z,18.64
2018-12-09T12:37:00.894Z,18.65
2018-12-09T12:39:30.661Z,18.72
2018-12-09T12:41:59.538Z,18.68
2018-12-09T12:44:29.786Z,18.65
2018-12-09T12:47:00.921Z,18.60
2018-12-09T12:49:29.666Z,18.67
2018-12-09T12:51:58.758Z,18.62
2018-12-09T12:54:27.506Z,18.61
2018-12-09T12:56:56.266Z,18.65
2018-12-09T12:59:24.998Z,18.71
2018-12-09T13:01:53.758Z,18.72
2018-12-09T13:04:22.856Z,18.68
2018-12-09T13:06:51.644Z,18.66
2018-12-09T13:09:20.439Z,18.62
2018-12-09T13:11:49.334Z,18.65
2018-12-09T13:14:18.066Z,18.61
2018-12-09T13:16:47.074Z,18.61
2018-12-09T13:19:16.053Z,18.74
2018-12-09T13:21:44.814Z,18.79
2018-12-09T13:24:13.570Z,18.77
2018-12-09T13:26:42.310Z,18.72
2018-12-09T13:29:11.256Z,18.78
2018-12-09T13:31:40.015Z,18.76
2018-12-09T13:34:08.815Z,18.73
2018-12-09T13:36:38.327Z,18.69
2018-12-09T13:39:07.719Z,18.72
2018-12-09T13:41:36.531Z,18.80
2018-12-09T13:44:05.585Z,18.83
2018-12-09T13:46:34.831Z,18.80
2018-12-09T13:49:04.087Z,18.79
2018-12-09T13:51:32.842Z,18.83
2018-12-09T13:54:01.644Z,18.80
2018-12-09T13:56:31.013Z,18.79
2018-12-09T13:58:59.806Z,18.80
2018-12-09T14:01:29.717Z,18.86
2018-12-09T14:03:58.502Z,18.90
2018-12-09T14:06:27.335Z,18.86
2018-12-09T14:08:56.074Z,18.85
2018-12-09T14:11:24.827Z,18.88
2018-12-09T14:13:53.732Z,18.87
2018-12-09T14:16:22.859Z,18.87
2018-12-09T14:18:51.614Z,18.86
2018-12-09T14:21:21.161Z,18.85
2018-12-09T14:23:51.197Z,18.79
2018-12-09T14:26:20.281Z,18.83
2018-12-09T14:28:49.052Z,18.85
2018-12-09T14:31:18.808Z,18.90
2018-12-09T14:33:50.190Z,18.92
2018-12-09T14:36:19.831Z,18.89
2018-12-09T14:40:23.705Z,18.85
2018-12-09T14:42:52.902Z,18.91
2018-12-09T14:45:22.284Z,18.86
2018-12-09T14:47:51.264Z,18.84
2018-12-09T14:50:21.290Z,18.89
2018-12-09T14:52:51.255Z,18.96
2018-12-09T14:55:20.838Z,18.97
2018-12-09T14:57:49.895Z,18.96
2018-12-09T15:00:19.538Z,18.97
2018-12-09T15:02:50.193Z,18.96
2018-12-09T15:05:19.395Z,18.96
2018-12-09T15:07:48.118Z,18.96
2018-12-09T15:10:17.781Z,18.92
2018-12-09T15:12:46.605Z,18.92
2018-12-09T15:15:15.823Z,18.88
2018-12-09T15:17:45.182Z,18.88
2018-12-09T15:20:14.874Z,18.90
2018-12-09T15:22:44.106Z,18.94
2018-12-09T15:25:13.222Z,18.99
2018-12-09T15:27:41.983Z,18.97
2018-12-09T15:30:11.819Z,18.93
2018-12-09T15:32:41.404Z,18.92
2018-12-09T15:35:10.426Z,18.94
2018-12-09T15:37:39.232Z,18.95
2018-12-09T15:40:08.298Z,18.94
2018-12-09T15:42:37.258Z,18.86
2018-12-09T15:45:07.393Z,18.86
2018-12-09T15:47:36.328Z,18.82
2018-12-09T15:50:06.911Z,18.81
2018-12-09T15:52:35.684Z,18.83
2018-12-09T15:55:06.506Z,18.93
2018-12-09T15:57:35.563Z,18.88
2018-12-09T16:00:04.397Z,18.80
2018-12-09T16:02:33.193Z,18.78
2018-12-09T16:05:02.182Z,18.75
2018-12-09T16:07:30.948Z,18.74
2018-12-09T16:10:01.125Z,18.72
2018-12-09T16:12:30.302Z,18.71
2018-12-09T16:14:59.250Z,18.76
2018-12-09T16:17:28.265Z,18.67
2018-12-09T16:19:57.052Z,18.63
2018-12-09T16:22:26.815Z,18.68
2018-12-09T16:24:55.603Z,18.68
2018-12-09T16:27:24.559Z,18.75
2018-12-09T16:29:53.358Z,18.75
2018-12-09T16:32:22.212Z,18.69
2018-12-09T16:34:51.198Z,18.73
2018-12-09T16:37:20.213Z,18.69
2018-12-09T16:39:49.125Z,18.68
2018-12-09T16:42:17.882Z,18.61
2018-12-09T16:44:46.827Z,18.66
2018-12-09T16:47:15.610Z,18.69
2018-12-09T16:49:44.537Z,18.65
2018-12-09T16:52:13.925Z,18.71
2018-12-09T16:54:43.141Z,18.72
2018-12-09T16:57:14.497Z,18.71
2018-12-09T16:59:43.540Z,18.73
2018-12-09T17:02:12.794Z,18.75
2018-12-09T17:04:41.804Z,18.68
2018-12-09T17:07:12.525Z,18.70
2018-12-09T17:09:41.782Z,18.59
2018-12-09T17:12:10.623Z,18.62
2018-12-09T17:14:39.688Z,18.60
2018-12-09T17:17:09.773Z,18.62
2018-12-09T17:19:39.175Z,18.58
2018-12-09T17:22:08.171Z,18.61
2018-12-09T17:24:38.102Z,18.63
2018-12-09T17:27:09.898Z,18.73
2018-12-09T17:29:38.882Z,18.69
2018-12-09T17:32:08.166Z,18.63
2018-12-09T17:34:37.168Z,18.66
2018-12-09T17:37:05.944Z,18.64
2018-12-09T17:39:35.246Z,18.64
2018-12-09T17:42:04.304Z,18.59
2018-12-09T17:44:33.135Z,18.65
2018-12-09T17:47:02.237Z,18.70
2018-12-09T17:49:32.224Z,18.74
2018-12-09T17:52:01.124Z,18.76
2018-12-09T17:54:30.066Z,18.70
2018-12-09T17:56:59.162Z,18.67
2018-12-09T17:59:30.819Z,18.67
2018-12-09T18:02:00.989Z,18.71
2018-12-09T18:04:31.858Z,18.75
2018-12-09T18:07:02.969Z,18.78
2018-12-09T18:09:34.030Z,18.74
2018-12-09T18:12:02.930Z,18.76
2018-12-09T18:14:32.171Z,18.75
2018-12-09T18:17:01.241Z,18.74
2018-12-09T18:19:30.300Z,18.77
2018-12-09T18:21:59.078Z,18.72
2018-12-09T18:24:27.857Z,18.74
2018-12-09T18:26:56.796Z,18.79
2018-12-09T18:29:26.198Z,18.83
2018-12-09T18:31:55.178Z,18.76
2018-12-09T18:34:24.375Z,18.78
2018-12-09T18:36:54.052Z,18.71
2018-12-09T18:39:23.086Z,18.73
2018-12-09T18:41:52.386Z,18.73
2018-12-09T18:44:21.332Z,18.70
2018-12-09T18:46:50.169Z,18.72
2018-12-09T18:49:19.831Z,18.69
2018-12-09T18:51:48.783Z,18.74
2018-12-09T18:54:17.785Z,18.69
2018-12-09T18:56:46.546Z,18.78
2018-12-09T18:59:15.358Z,18.79
2018-12-09T19:01:44.385Z,18.82
2018-12-09T19:04:13.288Z,18.78
2018-12-09T19:06:42.111Z,18.72
2018-12-09T19:09:10.922Z,18.71
2018-12-09T19:11:39.698Z,18.74
2018-12-09T19:14:08.734Z,18.64
2018-12-09T19:16:37.864Z,18.67
2018-12-09T19:19:07.411Z,18.71
2018-12-09T19:21:36.503Z,18.64
2018-12-09T19:24:05.335Z,18.63
2018-12-09T19:26:34.562Z,18.69
2018-12-09T19:29:03.494Z,18.73
2018-12-09T19:31:32.258Z,18.76
2018-12-09T19:34:01.580Z,18.72
2018-12-09T19:36:31.507Z,18.69
2018-12-09T19:39:01.994Z,18.73
2018-12-09T19:41:31.352Z,18.71
2018-12-09T19:44:00.615Z,18.71
2018-12-09T19:46:29.375Z,18.69
2018-12-09T19:48:58.251Z,18.69
2018-12-09T19:51:27.255Z,18.78
2018-12-09T19:53:56.818Z,18.84
2018-12-09T19:56:26.290Z,18.90
2018-12-09T19:58:55.295Z,18.96
2018-12-09T20:01:26.310Z,19.00
2018-12-09T20:03:55.471Z,19.01
2018-12-09T20:06:24.538Z,19.04
2018-12-09T20:08:53.558Z,19.06
2018-12-09T20:11:22.701Z,19.15
2018-12-09T20:13:51.832Z,19.14
2018-12-09T20:16:21.191Z,19.26
2018-12-09T20:18:50.094Z,19.25
2018-12-09T20:21:19.179Z,19.31
2018-12-09T20:23:52.422Z,19.39
2018-12-09T20:26:21.157Z,19.46
2018-12-09T20:28:50.337Z,19.49
2018-12-09T20:31:19.929Z,19.50
2018-12-09T20:33:48.886Z,19.46
2018-12-09T20:36:18.111Z,19.48
2018-12-09T20:38:48.194Z,19.57
2018-12-09T20:41:16.971Z,19.63
2018-12-09T20:43:46.142Z,19.67
2018-12-09T20:46:15.408Z,19.65
2018-12-09T20:48:44.767Z,19.75
2018-12-09T20:51:14.234Z,19.77
2018-12-09T20:53:43.260Z,19.85
2018-12-09T20:56:12.842Z,19.87
2018-12-09T20:58:41.832Z,20.01
2018-12-09T21:01:11.882Z,20.02
2018-12-09T21:03:41.530Z,20.03
2018-12-09T21:06:10.994Z,20.08
2018-12-09T21:08:40.891Z,20.10
2018-12-09T21:11:09.807Z,20.16
2018-12-09T21:13:39.273Z,20.17
2018-12-09T21:16:08.795Z,20.17
2018-12-09T21:18:37.883Z,20.11
2018-12-09T21:21:08.383Z,20.16
2018-12-09T21:23:37.598Z,20.13
2018-12-09T21:26:13.795Z,20.14
2018-12-09T21:28:43.456Z,20.07
2018-12-09T21:31:12.917Z,20.06
2018-12-09T21:33:42.722Z,20.05
2018-12-09T21:36:11.975Z,20.03
2018-12-09T21:38:42.964Z,20.02
2018-12-09T21:41:13.163Z,19.96
2018-12-09T21:43:42.414Z,19.97
2018-12-09T21:46:11.695Z,19.90
2018-12-09T21:48:41.358Z,19.91
2018-12-09T21:51:10.238Z,19.88
2018-12-09T21:53:39.737Z,19.86
2018-12-09T21:56:09.163Z,19.85
2018-12-09T21:58:38.333Z,19.87
2018-12-09T22:01:07.737Z,19.82
2018-12-09T22:03:36.527Z,19.76
2018-12-09T22:06:05.824Z,19.77
2018-12-09T22:08:34.983Z,19.75
2018-12-09T22:11:03.789Z,19.72
2018-12-09T22:13:32.826Z,19.68
2018-12-09T22:16:01.763Z,19.66
2018-12-09T22:18:30.823Z,19.66
2018-12-09T22:20:59.658Z,19.64
2018-12-09T22:23:28.438Z,19.69
2018-12-09T22:25:57.350Z,19.58
2018-12-09T22:28:26.138Z,19.57
2018-12-09T22:30:54.967Z,19.51
2018-12-09T22:33:23.819Z,19.48
2018-12-09T22:35:53.517Z,19.45
2018-12-09T22:38:22.254Z,19.43
2018-12-09T22:40:50.998Z,19.42
2018-12-09T22:43:19.795Z,19.44
2018-12-09T22:45:49.074Z,19.39
2018-12-09T22:48:17.884Z,19.39
2018-12-09T22:50:46.824Z,19.41
2018-12-09T22:53:15.598Z,19.36
2018-12-09T22:55:44.570Z,19.33
2018-12-09T22:58:14.379Z,19.33
2018-12-09T23:00:48.185Z,19.27
2018-12-09T23:03:16.950Z,19.24
2018-12-09T23:05:46.257Z,19.25
2018-12-09T23:08:15.304Z,19.20
2018-12-09T23:10:44.255Z,19.17
2018-12-09T23:13:13.029Z,19.18
2018-12-09T23:15:41.958Z,19.14
2018-12-09T23:18:10.718Z,19.09
2018-12-09T23:20:39.686Z,19.08
2018-12-09T23:23:08.628Z,19.06
2018-12-09T23:25:37.442Z,19.00
2018-12-09T23:28:06.185Z,18.98
2018-12-09T23:30:35.279Z,18.92
2018-12-09T23:33:04.226Z,18.87
2018-12-09T23:35:33.226Z,18.96
2018-12-09T23:38:02.022Z,18.82
2018-12-09T23:40:31.648Z,18.82
2018-12-09T23:43:00.452Z,18.75
2018-12-09T23:45:29.383Z,18.71
2018-12-09T23:47:58.463Z,18.65
2018-12-09T23:50:27.288Z,18.60
2018-12-09T23:52:56.263Z,18.56
2018-12-09T23:55:25.040Z,18.58
2018-12-09T23:57:54.047Z,18.49
